sensor_id;sensor_type;location;lat;lon;timestamp;temperature;humidity
14349;DHT22;7258;50.376;8.742;2024-02-21T00:01:55;7.50;99.90
14349;DHT22;7258;50.376;8.742;2024-02-21T00:03:57;7.50;99.90
14349;DHT22;7258;50.376;8.742;2024-02-21T00:06:01;7.40;99.90
14349;DHT22;7258;50.376;8.742;2024-02-21T00:08:04;7.40;99.90
14349;DHT22;7258;50.376;8.742;2024-02-21T00:10:09;7.40;99.90
14349;DHT22;7258;50.376;8.742;2024-02-21T00:12:11;7.30;99.90
14349;DHT22;7258;50.376;8.742;2024-02-21T00:14:15;7.30;99.90
14349;DHT22;7258;50.376;8.742;2024-02-21T00:16:18;7.30;99.90
14349;DHT22;7258;50.376;8.742;2024-02-21T00:18:20;7.30;99.90
14349;DHT22;7258;50.376;8.742;2024-02-21T00:20:27;7.30;99.90
14349;DHT22;7258;50.376;8.742;2024-02-21T00:22:29;7.30;99.90
14349;DHT22;7258;50.376;8.742;2024-02-21T00:24:32;7.30;99.90
14349;DHT22;7258;50.376;8.742;2024-02-21T00:26:37;7.20;99.90
14349;DHT22;7258;50.376;8.742;2024-02-21T00:28:39;7.20;99.90
14349;DHT22;7258;50.376;8.742;2024-02-21T00:30:41;7.20;99.90
14349;DHT22;7258;50.376;8.742;2024-02-21T00:32:44;7.20;99.90
14349;DHT22;7258;50.376;8.742;2024-02-21T00:34:47;7.20;99.90
14349;DHT22;7258;50.376;8.742;2024-02-21T00:36:50;7.20;99.90
14349;DHT22;7258;50.376;8.742;2024-02-21T00:38:53;7.20;99.90
14349;DHT22;7258;50.376;8.742;2024-02-21T00:40:56;7.20;99.90
14349;DHT22;7258;50.376;8.742;2024-02-21T00:43:00;7.20;99.90
14349;DHT22;7258;50.376;8.742;2024-02-21T00:45:04;7.20;99.90
14349;DHT22;7258;50.376;8.742;2024-02-21T00:47:10;7.10;99.90
14349;DHT22;7258;50.376;8.742;2024-02-21T00:49:13;7.10;99.90
14349;DHT22;7258;50.376;8.742;2024-02-21T00:51:15;7.10;99.90
14349;DHT22;7258;50.376;8.742;2024-02-21T00:53:17;7.10;99.90
14349;DHT22;7258;50.376;8.742;2024-02-21T00:55:20;7.10;99.90
14349;DHT22;7258;50.376;8.742;2024-02-21T00:57:23;7.00;99.90
14349;DHT22;7258;50.376;8.742;2024-02-21T00:59:27;7.00;99.90
14349;DHT22;7258;50.376;8.742;2024-02-21T01:01:31;6.90;99.90
14349;DHT22;7258;50.376;8.742;2024-02-21T01:03:34;6.90;99.90
14349;DHT22;7258;50.376;8.742;2024-02-21T01:05:37;6.90;99.90
14349;DHT22;7258;50.376;8.742;2024-02-21T01:07:39;6.90;99.90
14349;DHT22;7258;50.376;8.742;2024-02-21T01:09:43;6.90;99.90
14349;DHT22;7258;50.376;8.742;2024-02-21T01:11:44;6.90;99.90
14349;DHT22;7258;50.376;8.742;2024-02-21T01:13:47;6.90;99.90
14349;DHT22;7258;50.376;8.742;2024-02-21T01:15:52;6.90;99.90
14349;DHT22;7258;50.376;8.742;2024-02-21T01:17:55;6.90;99.90
14349;DHT22;7258;50.376;8.742;2024-02-21T01:19:58;6.90;99.90
14349;DHT22;7258;50.376;8.742;2024-02-21T01:22:01;6.90;99.90
14349;DHT22;7258;50.376;8.742;2024-02-21T01:24:05;6.90;99.90
14349;DHT22;7258;50.376;8.742;2024-02-21T01:26:07;6.90;99.90
14349;DHT22;7258;50.376;8.742;2024-02-21T01:28:14;6.90;99.90
14349;DHT22;7258;50.376;8.742;2024-02-21T01:30:17;6.90;99.90
14349;DHT22;7258;50.376;8.742;2024-02-21T01:32:21;6.80;99.90
14349;DHT22;7258;50.376;8.742;2024-02-21T01:34:26;6.80;99.90
14349;DHT22;7258;50.376;8.742;2024-02-21T01:36:33;6.80;99.90
14349;DHT22;7258;50.376;8.742;2024-02-21T01:38:36;6.80;99.90
14349;DHT22;7258;50.376;8.742;2024-02-21T01:40:38;6.80;99.90
14349;DHT22;7258;50.376;8.742;2024-02-21T01:42:41;6.80;99.90
14349;DHT22;7258;50.376;8.742;2024-02-21T01:44:44;6.80;99.90
14349;DHT22;7258;50.376;8.742;2024-02-21T01:46:47;6.80;99.90
14349;DHT22;7258;50.376;8.742;2024-02-21T01:48:51;6.70;99.90
14349;DHT22;7258;50.376;8.742;2024-02-21T01:50:55;6.80;99.90
14349;DHT22;7258;50.376;8.742;2024-02-21T01:52:58;6.80;99.90
14349;DHT22;7258;50.376;8.742;2024-02-21T01:55:02;6.80;99.90
14349;DHT22;7258;50.376;8.742;2024-02-21T01:57:05;6.80;99.90
14349;DHT22;7258;50.376;8.742;2024-02-21T01:59:08;6.90;99.90
14349;DHT22;7258;50.376;8.742;2024-02-21T02:01:12;6.90;99.90
14349;DHT22;7258;50.376;8.742;2024-02-21T02:03:17;6.90;99.90
14349;DHT22;7258;50.376;8.742;2024-02-21T02:05:22;6.90;99.90
14349;DHT22;7258;50.376;8.742;2024-02-21T02:07:25;7.00;99.90
14349;DHT22;7258;50.376;8.742;2024-02-21T02:09:27;7.00;99.90
14349;DHT22;7258;50.376;8.742;2024-02-21T02:11:32;7.00;99.90
14349;DHT22;7258;50.376;8.742;2024-02-21T02:13:35;7.00;99.90
14349;DHT22;7258;50.376;8.742;2024-02-21T02:15:38;7.00;99.90
14349;DHT22;7258;50.376;8.742;2024-02-21T02:17:41;7.00;99.90
14349;DHT22;7258;50.376;8.742;2024-02-21T02:19:44;7.00;99.90
14349;DHT22;7258;50.376;8.742;2024-02-21T02:21:51;7.00;99.90
14349;DHT22;7258;50.376;8.742;2024-02-21T02:23:59;7.10;99.90
14349;DHT22;7258;50.376;8.742;2024-02-21T02:26:02;7.10;99.90
14349;DHT22;7258;50.376;8.742;2024-02-21T02:28:06;7.10;99.90
14349;DHT22;7258;50.376;8.742;2024-02-21T02:30:11;7.00;99.90
14349;DHT22;7258;50.376;8.742;2024-02-21T02:32:14;7.10;99.90
14349;DHT22;7258;50.376;8.742;2024-02-21T02:34:17;7.10;99.90
14349;DHT22;7258;50.376;8.742;2024-02-21T02:36:19;7.10;99.90
14349;DHT22;7258;50.376;8.742;2024-02-21T02:38:22;7.00;99.90
14349;DHT22;7258;50.376;8.742;2024-02-21T02:40:26;7.00;99.90
14349;DHT22;7258;50.376;8.742;2024-02-21T02:42:29;7.00;99.90
14349;DHT22;7258;50.376;8.742;2024-02-21T02:44:32;7.10;99.90
14349;DHT22;7258;50.376;8.742;2024-02-21T02:46:35;7.10;99.90
14349;DHT22;7258;50.376;8.742;2024-02-21T02:48:38;7.10;99.90
14349;DHT22;7258;50.376;8.742;2024-02-21T02:50:41;7.10;99.90
14349;DHT22;7258;50.376;8.742;2024-02-21T02:52:44;7.10;99.90
14349;DHT22;7258;50.376;8.742;2024-02-21T02:54:47;7.10;99.90
14349;DHT22;7258;50.376;8.742;2024-02-21T02:56:54;7.10;99.90
14349;DHT22;7258;50.376;8.742;2024-02-21T02:58:57;7.10;99.90
14349;DHT22;7258;50.376;8.742;2024-02-21T03:01:00;7.10;99.90
14349;DHT22;7258;50.376;8.742;2024-02-21T03:03:04;7.10;99.90
14349;DHT22;7258;50.376;8.742;2024-02-21T03:05:12;7.10;99.90
14349;DHT22;7258;50.376;8.742;2024-02-21T03:07:17;7.10;99.90
14349;DHT22;7258;50.376;8.742;2024-02-21T03:09:20;7.10;99.90
14349;DHT22;7258;50.376;8.742;2024-02-21T03:11:23;7.10;99.90
14349;DHT22;7258;50.376;8.742;2024-02-21T03:13:32;7.10;99.90
14349;DHT22;7258;50.376;8.742;2024-02-21T03:15:36;7.10;99.90
14349;DHT22;7258;50.376;8.742;2024-02-21T03:17:38;7.10;99.90
14349;DHT22;7258;50.376;8.742;2024-02-21T03:19:41;7.10;99.90
14349;DHT22;7258;50.376;8.742;2024-02-21T03:21:44;7.10;99.90
14349;DHT22;7258;50.376;8.742;2024-02-21T03:23:47;7.10;99.90
14349;DHT22;7258;50.376;8.742;2024-02-21T03:25:50;7.10;99.90
14349;DHT22;7258;50.376;8.742;2024-02-21T03:27:53;7.10;99.90
14349;DHT22;7258;50.376;8.742;2024-02-21T03:29:57;7.10;99.90
14349;DHT22;7258;50.376;8.742;2024-02-21T03:31:59;7.10;99.90
14349;DHT22;7258;50.376;8.742;2024-02-21T03:34:02;7.10;99.90
14349;DHT22;7258;50.376;8.742;2024-02-21T03:36:05;7.10;99.90
14349;DHT22;7258;50.376;8.742;2024-02-21T03:38:08;7.10;99.90
14349;DHT22;7258;50.376;8.742;2024-02-21T03:40:11;7.10;99.90
14349;DHT22;7258;50.376;8.742;2024-02-21T03:42:14;7.10;99.90
14349;DHT22;7258;50.376;8.742;2024-02-21T03:44:16;7.10;99.90
14349;DHT22;7258;50.376;8.742;2024-02-21T03:46:21;7.10;99.90
14349;DHT22;7258;50.376;8.742;2024-02-21T03:48:24;7.10;99.90
14349;DHT22;7258;50.376;8.742;2024-02-21T03:50:26;7.10;99.90
14349;DHT22;7258;50.376;8.742;2024-02-21T03:52:29;7.10;99.90
14349;DHT22;7258;50.376;8.742;2024-02-21T03:54:31;7.10;99.90
14349;DHT22;7258;50.376;8.742;2024-02-21T03:56:37;7.10;99.90
14349;DHT22;7258;50.376;8.742;2024-02-21T03:58:41;7.10;99.90
14349;DHT22;7258;50.376;8.742;2024-02-21T04:00:43;7.10;99.90
14349;DHT22;7258;50.376;8.742;2024-02-21T04:02:48;7.10;99.90
14349;DHT22;7258;50.376;8.742;2024-02-21T04:04:52;7.10;99.90
14349;DHT22;7258;50.376;8.742;2024-02-21T04:06:55;7.10;99.90
14349;DHT22;7258;50.376;8.742;2024-02-21T04:08:58;7.10;99.90
14349;DHT22;7258;50.376;8.742;2024-02-21T04:11:00;7.10;99.90
14349;DHT22;7258;50.376;8.742;2024-02-21T04:13:04;7.10;99.90
14349;DHT22;7258;50.376;8.742;2024-02-21T04:15:08;7.10;99.90
14349;DHT22;7258;50.376;8.742;2024-02-21T04:17:11;7.10;99.90
14349;DHT22;7258;50.376;8.742;2024-02-21T04:19:14;7.10;99.90
14349;DHT22;7258;50.376;8.742;2024-02-21T04:21:17;7.10;99.90
14349;DHT22;7258;50.376;8.742;2024-02-21T04:23:20;7.10;99.90
14349;DHT22;7258;50.376;8.742;2024-02-21T04:25:23;7.10;99.90
14349;DHT22;7258;50.376;8.742;2024-02-21T04:27:26;7.10;99.90
14349;DHT22;7258;50.376;8.742;2024-02-21T04:29:29;7.10;99.90
14349;DHT22;7258;50.376;8.742;2024-02-21T04:31:32;7.10;99.90
14349;DHT22;7258;50.376;8.742;2024-02-21T04:33:36;7.10;99.90
14349;DHT22;7258;50.376;8.742;2024-02-21T04:35:39;7.20;99.90
14349;DHT22;7258;50.376;8.742;2024-02-21T04:37:42;7.20;99.90
14349;DHT22;7258;50.376;8.742;2024-02-21T04:39:45;7.10;99.90
14349;DHT22;7258;50.376;8.742;2024-02-21T04:41:47;7.20;99.90
14349;DHT22;7258;50.376;8.742;2024-02-21T04:43:50;7.20;99.90
14349;DHT22;7258;50.376;8.742;2024-02-21T04:45:53;7.20;99.90
14349;DHT22;7258;50.376;8.742;2024-02-21T04:47:56;7.20;99.90
14349;DHT22;7258;50.376;8.742;2024-02-21T04:49:59;7.20;99.90
14349;DHT22;7258;50.376;8.742;2024-02-21T04:52:04;7.20;99.90
14349;DHT22;7258;50.376;8.742;2024-02-21T04:54:07;7.20;99.90
14349;DHT22;7258;50.376;8.742;2024-02-21T04:56:10;7.20;99.90
14349;DHT22;7258;50.376;8.742;2024-02-21T04:58:13;7.20;99.90
14349;DHT22;7258;50.376;8.742;2024-02-21T05:00:16;7.20;99.90
14349;DHT22;7258;50.376;8.742;2024-02-21T05:02:19;7.20;99.90
14349;DHT22;7258;50.376;8.742;2024-02-21T05:04:24;7.20;99.90
14349;DHT22;7258;50.376;8.742;2024-02-21T05:06:27;7.20;99.90
14349;DHT22;7258;50.376;8.742;2024-02-21T05:08:31;7.20;99.90
14349;DHT22;7258;50.376;8.742;2024-02-21T05:10:34;7.20;99.90
14349;DHT22;7258;50.376;8.742;2024-02-21T05:12:36;7.20;99.90
14349;DHT22;7258;50.376;8.742;2024-02-21T05:14:40;7.20;99.90
14349;DHT22;7258;50.376;8.742;2024-02-21T05:16:42;7.20;99.90
14349;DHT22;7258;50.376;8.742;2024-02-21T05:18:46;7.20;99.90
14349;DHT22;7258;50.376;8.742;2024-02-21T05:20:49;7.20;99.90
14349;DHT22;7258;50.376;8.742;2024-02-21T05:22:52;7.20;99.90
14349;DHT22;7258;50.376;8.742;2024-02-21T05:24:55;7.20;99.90
14349;DHT22;7258;50.376;8.742;2024-02-21T05:26:58;7.20;99.90
14349;DHT22;7258;50.376;8.742;2024-02-21T05:29:01;7.20;99.90
14349;DHT22;7258;50.376;8.742;2024-02-21T05:31:04;7.20;99.90
14349;DHT22;7258;50.376;8.742;2024-02-21T05:33:07;7.20;99.90
14349;DHT22;7258;50.376;8.742;2024-02-21T05:35:10;7.20;99.90
14349;DHT22;7258;50.376;8.742;2024-02-21T05:37:13;7.20;99.90
14349;DHT22;7258;50.376;8.742;2024-02-21T05:39:18;7.30;99.90
14349;DHT22;7258;50.376;8.742;2024-02-21T05:41:22;7.20;99.90
14349;DHT22;7258;50.376;8.742;2024-02-21T05:43:25;7.30;99.90
14349;DHT22;7258;50.376;8.742;2024-02-21T05:45:28;7.30;99.90
14349;DHT22;7258;50.376;8.742;2024-02-21T05:47:31;7.30;99.90
14349;DHT22;7258;50.376;8.742;2024-02-21T05:49:34;7.30;99.90
14349;DHT22;7258;50.376;8.742;2024-02-21T05:51:37;7.30;99.90
14349;DHT22;7258;50.376;8.742;2024-02-21T05:53:40;7.30;99.90
14349;DHT22;7258;50.376;8.742;2024-02-21T05:55:43;7.30;99.90
14349;DHT22;7258;50.376;8.742;2024-02-21T05:57:48;7.30;99.90
14349;DHT22;7258;50.376;8.742;2024-02-21T05:59:51;7.30;99.90
14349;DHT22;7258;50.376;8.742;2024-02-21T06:01:57;7.30;99.90
14349;DHT22;7258;50.376;8.742;2024-02-21T06:03:59;7.30;99.90
14349;DHT22;7258;50.376;8.742;2024-02-21T06:06:03;7.30;99.90
14349;DHT22;7258;50.376;8.742;2024-02-21T06:08:06;7.20;99.90
14349;DHT22;7258;50.376;8.742;2024-02-21T06:10:12;7.20;99.90
14349;DHT22;7258;50.376;8.742;2024-02-21T06:12:15;7.20;99.90
14349;DHT22;7258;50.376;8.742;2024-02-21T06:14:20;7.10;99.90
14349;DHT22;7258;50.376;8.742;2024-02-21T06:16:22;7.10;99.90
14349;DHT22;7258;50.376;8.742;2024-02-21T06:18:25;7.10;99.90
14349;DHT22;7258;50.376;8.742;2024-02-21T06:20:28;7.10;99.90
14349;DHT22;7258;50.376;8.742;2024-02-21T06:22:31;7.00;99.90
14349;DHT22;7258;50.376;8.742;2024-02-21T06:24:34;7.00;99.90
14349;DHT22;7258;50.376;8.742;2024-02-21T06:26:37;6.90;99.90
14349;DHT22;7258;50.376;8.742;2024-02-21T06:28:41;6.90;99.90
14349;DHT22;7258;50.376;8.742;2024-02-21T06:30:45;6.80;99.90
14349;DHT22;7258;50.376;8.742;2024-02-21T06:32:49;6.80;99.90
14349;DHT22;7258;50.376;8.742;2024-02-21T06:34:51;6.80;99.90
14349;DHT22;7258;50.376;8.742;2024-02-21T06:36:55;6.80;99.90
14349;DHT22;7258;50.376;8.742;2024-02-21T06:38:58;6.80;99.90
14349;DHT22;7258;50.376;8.742;2024-02-21T06:41:01;6.80;99.90
14349;DHT22;7258;50.376;8.742;2024-02-21T06:43:04;6.80;99.90
14349;DHT22;7258;50.376;8.742;2024-02-21T06:45:06;6.80;99.90
14349;DHT22;7258;50.376;8.742;2024-02-21T06:47:11;6.70;99.90
14349;DHT22;7258;50.376;8.742;2024-02-21T06:49:14;6.70;99.90
14349;DHT22;7258;50.376;8.742;2024-02-21T06:51:18;6.60;99.90
14349;DHT22;7258;50.376;8.742;2024-02-21T06:53:21;6.60;99.90
14349;DHT22;7258;50.376;8.742;2024-02-21T06:55:24;6.60;99.90
14349;DHT22;7258;50.376;8.742;2024-02-21T06:57:28;6.50;99.90
14349;DHT22;7258;50.376;8.742;2024-02-21T06:59:30;6.50;99.90
14349;DHT22;7258;50.376;8.742;2024-02-21T07:01:33;6.50;99.90
14349;DHT22;7258;50.376;8.742;2024-02-21T07:03:38;6.50;99.90
14349;DHT22;7258;50.376;8.742;2024-02-21T07:05:40;6.50;99.90
14349;DHT22;7258;50.376;8.742;2024-02-21T07:07:42;6.40;99.90
14349;DHT22;7258;50.376;8.742;2024-02-21T07:09:46;6.50;99.90
14349;DHT22;7258;50.376;8.742;2024-02-21T07:11:50;6.50;99.90
14349;DHT22;7258;50.376;8.742;2024-02-21T07:13:53;6.50;99.90
14349;DHT22;7258;50.376;8.742;2024-02-21T07:15:56;6.60;99.90
14349;DHT22;7258;50.376;8.742;2024-02-21T07:17:57;6.60;99.90
14349;DHT22;7258;50.376;8.742;2024-02-21T07:20:03;6.60;99.90
14349;DHT22;7258;50.376;8.742;2024-02-21T07:22:06;6.70;99.90
14349;DHT22;7258;50.376;8.742;2024-02-21T07:24:09;6.70;99.90
14349;DHT22;7258;50.376;8.742;2024-02-21T07:26:11;6.80;99.90
14349;DHT22;7258;50.376;8.742;2024-02-21T07:28:14;6.80;99.90
14349;DHT22;7258;50.376;8.742;2024-02-21T07:30:18;6.90;99.90
14349;DHT22;7258;50.376;8.742;2024-02-21T07:32:21;7.00;99.90
14349;DHT22;7258;50.376;8.742;2024-02-21T07:34:23;7.10;99.90
14349;DHT22;7258;50.376;8.742;2024-02-21T07:36:30;7.10;99.90
14349;DHT22;7258;50.376;8.742;2024-02-21T07:38:33;7.20;99.90
14349;DHT22;7258;50.376;8.742;2024-02-21T07:40:35;7.30;99.90
14349;DHT22;7258;50.376;8.742;2024-02-21T07:42:39;7.30;99.90
14349;DHT22;7258;50.376;8.742;2024-02-21T07:44:40;7.40;99.90
14349;DHT22;7258;50.376;8.742;2024-02-21T07:46:43;7.40;99.90
14349;DHT22;7258;50.376;8.742;2024-02-21T07:48:46;7.40;99.90
14349;DHT22;7258;50.376;8.742;2024-02-21T07:50:49;7.50;99.90
14349;DHT22;7258;50.376;8.742;2024-02-21T07:52:53;7.60;99.90
14349;DHT22;7258;50.376;8.742;2024-02-21T07:54:56;7.60;99.90
14349;DHT22;7258;50.376;8.742;2024-02-21T07:56:58;7.70;99.90
14349;DHT22;7258;50.376;8.742;2024-02-21T07:59:01;7.70;99.90
14349;DHT22;7258;50.376;8.742;2024-02-21T08:01:04;7.80;99.90
14349;DHT22;7258;50.376;8.742;2024-02-21T08:03:07;7.80;99.90
14349;DHT22;7258;50.376;8.742;2024-02-21T08:05:10;7.90;99.90
14349;DHT22;7258;50.376;8.742;2024-02-21T08:07:14;7.90;99.90
14349;DHT22;7258;50.376;8.742;2024-02-21T08:09:18;8.00;99.90
14349;DHT22;7258;50.376;8.742;2024-02-21T08:11:21;8.10;99.90
14349;DHT22;7258;50.376;8.742;2024-02-21T08:13:24;8.20;99.90
14349;DHT22;7258;50.376;8.742;2024-02-21T08:15:27;8.20;99.90
14349;DHT22;7258;50.376;8.742;2024-02-21T08:17:31;8.30;99.90
14349;DHT22;7258;50.376;8.742;2024-02-21T08:19:34;8.30;99.90
14349;DHT22;7258;50.376;8.742;2024-02-21T08:21:37;8.40;99.90
14349;DHT22;7258;50.376;8.742;2024-02-21T08:23:39;8.40;99.90
14349;DHT22;7258;50.376;8.742;2024-02-21T08:25:43;8.50;99.90
14349;DHT22;7258;50.376;8.742;2024-02-21T08:27:46;8.50;99.90
14349;DHT22;7258;50.376;8.742;2024-02-21T08:29:49;8.50;99.90
14349;DHT22;7258;50.376;8.742;2024-02-21T08:31:53;8.60;99.90
14349;DHT22;7258;50.376;8.742;2024-02-21T08:33:56;8.60;99.90
14349;DHT22;7258;50.376;8.742;2024-02-21T08:36:05;8.70;99.90
14349;DHT22;7258;50.376;8.742;2024-02-21T08:38:08;8.70;99.90
14349;DHT22;7258;50.376;8.742;2024-02-21T08:40:11;8.70;99.90
14349;DHT22;7258;50.376;8.742;2024-02-21T08:42:15;8.70;99.90
14349;DHT22;7258;50.376;8.742;2024-02-21T08:44:18;8.80;99.90
14349;DHT22;7258;50.376;8.742;2024-02-21T08:46:20;8.80;99.90
14349;DHT22;7258;50.376;8.742;2024-02-21T08:48:23;8.80;99.90
14349;DHT22;7258;50.376;8.742;2024-02-21T08:50:28;8.80;99.90
14349;DHT22;7258;50.376;8.742;2024-02-21T08:52:32;8.90;99.90
14349;DHT22;7258;50.376;8.742;2024-02-21T08:54:34;9.00;99.90
14349;DHT22;7258;50.376;8.742;2024-02-21T08:56:37;9.10;99.90
14349;DHT22;7258;50.376;8.742;2024-02-21T08:58:42;9.20;99.90
14349;DHT22;7258;50.376;8.742;2024-02-21T09:00:44;9.30;99.90
14349;DHT22;7258;50.376;8.742;2024-02-21T09:02:47;9.40;99.90
14349;DHT22;7258;50.376;8.742;2024-02-21T09:04:50;9.40;99.90
14349;DHT22;7258;50.376;8.742;2024-02-21T09:06:53;9.30;99.90
14349;DHT22;7258;50.376;8.742;2024-02-21T09:08:56;9.30;99.90
14349;DHT22;7258;50.376;8.742;2024-02-21T09:10:59;9.20;99.90
14349;DHT22;7258;50.376;8.742;2024-02-21T09:13:03;9.20;99.90
14349;DHT22;7258;50.376;8.742;2024-02-21T09:15:08;9.20;99.90
14349;DHT22;7258;50.376;8.742;2024-02-21T09:17:11;9.30;99.90
14349;DHT22;7258;50.376;8.742;2024-02-21T09:19:16;9.40;99.90
14349;DHT22;7258;50.376;8.742;2024-02-21T09:21:20;9.40;99.90
14349;DHT22;7258;50.376;8.742;2024-02-21T09:23:24;9.50;99.90
14349;DHT22;7258;50.376;8.742;2024-02-21T09:25:26;9.50;99.90
14349;DHT22;7258;50.376;8.742;2024-02-21T09:27:30;9.50;99.90
14349;DHT22;7258;50.376;8.742;2024-02-21T09:29:33;9.50;99.90
14349;DHT22;7258;50.376;8.742;2024-02-21T09:31:37;9.50;99.90
14349;DHT22;7258;50.376;8.742;2024-02-21T09:33:41;9.50;99.90
14349;DHT22;7258;50.376;8.742;2024-02-21T09:35:44;9.50;99.90
14349;DHT22;7258;50.376;8.742;2024-02-21T09:37:46;9.50;99.90
14349;DHT22;7258;50.376;8.742;2024-02-21T09:39:49;9.50;99.90
14349;DHT22;7258;50.376;8.742;2024-02-21T09:41:59;9.40;99.90
14349;DHT22;7258;50.376;8.742;2024-02-21T09:44:04;9.40;99.90
14349;DHT22;7258;50.376;8.742;2024-02-21T09:46:08;9.40;99.90
14349;DHT22;7258;50.376;8.742;2024-02-21T09:48:25;9.50;99.90
14349;DHT22;7258;50.376;8.742;2024-02-21T09:50:38;9.50;99.90
14349;DHT22;7258;50.376;8.742;2024-02-21T09:52:43;9.50;99.90
14349;DHT22;7258;50.376;8.742;2024-02-21T09:54:47;9.60;99.90
14349;DHT22;7258;50.376;8.742;2024-02-21T09:56:50;9.60;99.90
14349;DHT22;7258;50.376;8.742;2024-02-21T09:58:53;9.60;99.90
14349;DHT22;7258;50.376;8.742;2024-02-21T10:00:56;9.70;99.90
14349;DHT22;7258;50.376;8.742;2024-02-21T10:03:00;9.80;99.90
14349;DHT22;7258;50.376;8.742;2024-02-21T10:05:10;9.80;99.90
14349;DHT22;7258;50.376;8.742;2024-02-21T10:07:14;9.90;99.90
14349;DHT22;7258;50.376;8.742;2024-02-21T10:09:21;9.90;99.90
14349;DHT22;7258;50.376;8.742;2024-02-21T10:11:24;10.00;99.90
14349;DHT22;7258;50.376;8.742;2024-02-21T10:13:29;10.10;99.90
14349;DHT22;7258;50.376;8.742;2024-02-21T10:15:32;10.00;99.90
14349;DHT22;7258;50.376;8.742;2024-02-21T10:17:35;10.10;99.90
14349;DHT22;7258;50.376;8.742;2024-02-21T10:19:38;10.10;99.90
14349;DHT22;7258;50.376;8.742;2024-02-21T10:21:44;10.20;99.90
14349;DHT22;7258;50.376;8.742;2024-02-21T10:23:48;10.30;99.90
14349;DHT22;7258;50.376;8.742;2024-02-21T10:26:04;10.30;99.90
14349;DHT22;7258;50.376;8.742;2024-02-21T10:28:07;10.30;99.90
14349;DHT22;7258;50.376;8.742;2024-02-21T10:30:14;10.40;99.90
14349;DHT22;7258;50.376;8.742;2024-02-21T10:32:17;10.40;99.90
14349;DHT22;7258;50.376;8.742;2024-02-21T10:34:20;10.50;99.90
14349;DHT22;7258;50.376;8.742;2024-02-21T10:36:23;10.60;99.90
14349;DHT22;7258;50.376;8.742;2024-02-21T10:38:28;10.50;99.90
14349;DHT22;7258;50.376;8.742;2024-02-21T10:40:31;10.60;99.90
14349;DHT22;7258;50.376;8.742;2024-02-21T10:42:36;10.70;99.90
14349;DHT22;7258;50.376;8.742;2024-02-21T10:44:41;10.70;99.90
14349;DHT22;7258;50.376;8.742;2024-02-21T10:46:45;10.80;99.90
14349;DHT22;7258;50.376;8.742;2024-02-21T10:48:59;10.80;99.90
14349;DHT22;7258;50.376;8.742;2024-02-21T10:51:14;10.90;99.90
14349;DHT22;7258;50.376;8.742;2024-02-21T10:53:23;10.90;99.90
14349;DHT22;7258;50.376;8.742;2024-02-21T10:55:38;10.90;99.90
14349;DHT22;7258;50.376;8.742;2024-02-21T10:57:44;10.90;99.90
14349;DHT22;7258;50.376;8.742;2024-02-21T10:59:48;10.80;99.90
14349;DHT22;7258;50.376;8.742;2024-02-21T11:01:50;10.80;99.90
14349;DHT22;7258;50.376;8.742;2024-02-21T11:03:59;10.80;99.90
14349;DHT22;7258;50.376;8.742;2024-02-21T11:06:04;10.70;99.90
14349;DHT22;7258;50.376;8.742;2024-02-21T11:08:07;10.80;99.90
14349;DHT22;7258;50.376;8.742;2024-02-21T11:10:20;10.80;99.90
14349;DHT22;7258;50.376;8.742;2024-02-21T11:12:26;10.80;99.90
14349;DHT22;7258;50.376;8.742;2024-02-21T11:14:30;10.90;99.90
14349;DHT22;7258;50.376;8.742;2024-02-21T11:16:36;10.90;99.90
14349;DHT22;7258;50.376;8.742;2024-02-21T11:18:40;11.00;99.90
14349;DHT22;7258;50.376;8.742;2024-02-21T11:20:50;11.00;99.90
14349;DHT22;7258;50.376;8.742;2024-02-21T11:22:53;11.10;99.90
14349;DHT22;7258;50.376;8.742;2024-02-21T11:25:06;11.00;99.90
14349;DHT22;7258;50.376;8.742;2024-02-21T11:27:12;10.90;99.90
14349;DHT22;7258;50.376;8.742;2024-02-21T11:29:23;10.80;99.90
14349;DHT22;7258;50.376;8.742;2024-02-21T11:31:26;10.80;99.90
14349;DHT22;7258;50.376;8.742;2024-02-21T11:33:30;10.80;99.90
14349;DHT22;7258;50.376;8.742;2024-02-21T11:35:34;10.80;99.90
14349;DHT22;7258;50.376;8.742;2024-02-21T11:37:38;10.70;99.90
14349;DHT22;7258;50.376;8.742;2024-02-21T11:39:42;10.80;99.90
14349;DHT22;7258;50.376;8.742;2024-02-21T11:41:45;10.80;99.90
14349;DHT22;7258;50.376;8.742;2024-02-21T11:43:49;10.80;99.90
14349;DHT22;7258;50.376;8.742;2024-02-21T11:46:00;10.90;99.90
14349;DHT22;7258;50.376;8.742;2024-02-21T11:48:02;10.90;99.90
14349;DHT22;7258;50.376;8.742;2024-02-21T11:50:10;10.90;99.90
14349;DHT22;7258;50.376;8.742;2024-02-21T11:52:14;11.10;99.90
14349;DHT22;7258;50.376;8.742;2024-02-21T11:54:18;11.10;99.90
14349;DHT22;7258;50.376;8.742;2024-02-21T11:56:21;11.10;99.90
14349;DHT22;7258;50.376;8.742;2024-02-21T11:58:24;11.10;99.90
14349;DHT22;7258;50.376;8.742;2024-02-21T12:00:27;11.10;99.90
14349;DHT22;7258;50.376;8.742;2024-02-21T12:02:31;11.10;99.90
14349;DHT22;7258;50.376;8.742;2024-02-21T12:04:36;11.00;99.90
14349;DHT22;7258;50.376;8.742;2024-02-21T12:06:39;11.10;99.90
14349;DHT22;7258;50.376;8.742;2024-02-21T12:08:42;11.20;99.90
14349;DHT22;7258;50.376;8.742;2024-02-21T12:10:45;11.20;99.90
14349;DHT22;7258;50.376;8.742;2024-02-21T12:12:52;11.30;99.90
14349;DHT22;7258;50.376;8.742;2024-02-21T12:15:00;11.30;99.90
14349;DHT22;7258;50.376;8.742;2024-02-21T12:17:03;11.30;99.90
14349;DHT22;7258;50.376;8.742;2024-02-21T12:19:10;11.30;99.90
14349;DHT22;7258;50.376;8.742;2024-02-21T12:21:15;11.20;99.90
14349;DHT22;7258;50.376;8.742;2024-02-21T12:23:18;11.30;99.90
14349;DHT22;7258;50.376;8.742;2024-02-21T12:25:22;11.30;99.90
14349;DHT22;7258;50.376;8.742;2024-02-21T12:27:27;11.20;99.90
14349;DHT22;7258;50.376;8.742;2024-02-21T12:29:31;11.20;99.90
14349;DHT22;7258;50.376;8.742;2024-02-21T12:31:34;11.20;99.90
14349;DHT22;7258;50.376;8.742;2024-02-21T12:33:38;11.20;99.90
14349;DHT22;7258;50.376;8.742;2024-02-21T12:35:42;11.20;99.90
14349;DHT22;7258;50.376;8.742;2024-02-21T12:37:45;11.20;99.90
14349;DHT22;7258;50.376;8.742;2024-02-21T12:39:48;11.30;99.90
14349;DHT22;7258;50.376;8.742;2024-02-21T12:41:50;11.30;99.90
14349;DHT22;7258;50.376;8.742;2024-02-21T12:43:53;11.30;99.90
14349;DHT22;7258;50.376;8.742;2024-02-21T12:45:57;11.40;99.90
14349;DHT22;7258;50.376;8.742;2024-02-21T12:48:00;11.50;99.90
14349;DHT22;7258;50.376;8.742;2024-02-21T12:50:03;11.50;99.90
14349;DHT22;7258;50.376;8.742;2024-02-21T12:52:10;11.50;99.90
14349;DHT22;7258;50.376;8.742;2024-02-21T12:54:15;11.50;99.90
14349;DHT22;7258;50.376;8.742;2024-02-21T12:56:17;11.40;99.90
14349;DHT22;7258;50.376;8.742;2024-02-21T12:58:20;11.40;99.90
14349;DHT22;7258;50.376;8.742;2024-02-21T13:00:24;11.30;99.90
14349;DHT22;7258;50.376;8.742;2024-02-21T13:02:29;11.30;99.90
14349;DHT22;7258;50.376;8.742;2024-02-21T13:04:32;11.30;99.90
14349;DHT22;7258;50.376;8.742;2024-02-21T13:06:35;11.30;99.90
14349;DHT22;7258;50.376;8.742;2024-02-21T13:08:40;11.20;99.90
14349;DHT22;7258;50.376;8.742;2024-02-21T13:10:44;11.20;99.90
14349;DHT22;7258;50.376;8.742;2024-02-21T13:12:47;11.20;99.90
14349;DHT22;7258;50.376;8.742;2024-02-21T13:14:49;11.20;99.90
14349;DHT22;7258;50.376;8.742;2024-02-21T13:16:51;11.20;99.90
14349;DHT22;7258;50.376;8.742;2024-02-21T13:18:55;11.20;99.90
14349;DHT22;7258;50.376;8.742;2024-02-21T13:20:58;11.10;99.90
14349;DHT22;7258;50.376;8.742;2024-02-21T13:23:01;11.10;99.90
14349;DHT22;7258;50.376;8.742;2024-02-21T13:25:06;11.10;99.90